Latest Weather Observations for Bushy Park

IDT60801

Issued at 1:02 pm EST Wednesday 28 September 2016 (issued every 30 minutes, with the page automatically refreshed every 10 minutes)

About weather observations | Map of weather stations | Latest weather observations for TAS | Other Formats
Station Details ID: 095003 Name: BUSHY PARK (BUSHY PARK ESTATES) Lat: -42.71 Lon: 146.90 Height: 27.0 m
Data from the previous 72 hours. | See also: Recent months at Bushy Park
Date/Time
EST
Temp
°C
App
Temp
°C
Dew
Point
°C
Rel
Hum
%
Delta-T
°C
Wind Press
QNH
hPa
Press
MSL
hPa
Rain since
9am
mm
Dir  Spd
km/h
Gust
km/h
Spd
kts
Gust
kts
28/01:00pm 16.0 12.8 0.7 35 6.6 NE 7 13 4 7 - - 0.0
28/12:30pm 15.7 11.8 1.2 37 6.3 N 11 17 6 9 - - 0.0
28/12:00pm 15.6 12.5 3.8 45 5.4 ENE 9 17 5 9 - - 0.0
28/11:30am 15.4 12.3 3.5 45 5.4 N 9 15 5 8 - - 0.0
28/11:00am 14.3 10.5 1.8 42 5.5 NNE 11 19 6 10 - - 0.0
28/10:30am 14.6 11.4 3.2 46 5.1 NE 9 15 5 8 - - 0.0
28/10:00am 13.8 10.7 3.8 51 4.5 NE 9 13 5 7 - - 0.0
28/09:30am 12.7 11.0 6.0 63 3.2 E 4 11 2 6 - - 0.0
28/09:00am 11.9 9.8 5.7 66 2.9 SE 6 11 3 6 - - 0.0
28/08:30am 11.0 8.8 6.4 73 2.2 ENE 7 9 4 5 - - 0.0
28/08:00am 9.9 7.7 6.0 77 1.8 NE 7 9 4 5 - - 0.0
28/07:30am 7.3 4.9 5.1 86 1.0 NNE 7 9 4 5 - - 0.0
28/07:00am 5.5 2.6 4.6 94 0.4 NNW 9 11 5 6 - - 0.0
28/06:30am 4.5 2.0 3.5 93 0.4 WSW 6 7 3 4 - - 0.0
28/06:00am 4.0 1.2 3.0 93 0.4 NNW 7 9 4 5 - - 0.0
28/05:30am 4.5 1.8 3.8 95 0.3 NNW 7 9 4 5 - - 0.0
28/05:00am 4.1 0.9 3.1 93 0.4 WSW 9 13 5 7 - - 0.0
28/04:30am 5.5 3.1 4.3 92 0.5 N 6 7 3 4 - - 0.0
28/04:00am 6.7 4.5 5.4 91 0.6 NNE 6 9 3 5 - - 0.0
28/03:30am 6.6 3.9 5.5 93 0.5 SSE 9 11 5 6 - - 0.0
28/03:00am 5.9 4.7 4.8 93 0.5 CALM 0 0 0 0 - - 0.0
28/02:30am 6.5 3.8 5.4 93 0.5 NNW 9 11 5 6 - - 0.0
28/02:00am 6.6 4.4 5.3 91 0.6 NNW 6 7 3 4 - - 0.0
28/01:30am 6.7 4.9 5.4 91 0.6 N 4 7 2 4 - - 0.0
28/01:00am 6.8 5.7 5.2 89 0.7 CALM 0 0 0 0 - - 0.0
28/12:30am 6.5 4.0 4.9 89 0.7 NW 7 9 4 5 - - 0.0
28/12:00am 7.1 4.9 5.3 88 0.8 N 6 9 3 5 - - 0.0
 
Date/Time
EST
Temp
°C
App
Temp
°C
Dew
Point
°C
Rel
Hum
%
Delta-T
°C
Wind Press
QNH
hPa
Press
MSL
hPa
Rain since
9am
mm
Dir  Spd
km/h
Gust
km/h
Spd
kts
Gust
kts
27/11:30pm 7.7 5.4 5.7 87 0.9 WSW 7 11 4 6 - - 0.0
27/11:00pm 8.2 5.2 5.8 85 1.1 N 11 11 6 6 - - 0.0
27/10:30pm 8.7 5.7 5.9 82 1.3 W 11 17 6 9 - - 0.0
27/10:00pm 10.0 7.1 6.4 78 1.7 NNW 11 13 6 7 - - 0.0
27/09:30pm 10.4 8.5 6.8 78 1.7 NE 6 9 3 5 - - 0.0
27/09:00pm 11.7 9.8 7.6 76 2.0 W 7 9 4 5 - - 0.0
27/08:30pm 12.4 9.4 6.1 65 3.0 WNW 11 13 6 7 - - 0.0
27/08:00pm 12.5 9.6 6.5 67 2.9 NNE 11 15 6 8 - - 0.0
27/07:30pm 13.6 9.8 5.9 59 3.7 WSW 15 26 8 14 - - 0.0
27/07:00pm 14.0 8.4 5.6 57 4.0 SW 24 33 13 18 - - 0.0
27/06:30pm 13.8 8.2 5.6 57 3.9 SW 24 33 13 18 - - 0.0
27/06:00pm 13.4 12.7 6.8 64 3.2 CALM 0 9 0 5 - - 0.0
27/05:30pm 14.8 14.0 6.6 58 4.0 CALM 0 0 0 0 - - 0.0
27/05:00pm 16.0 14.6 5.4 49 5.1 NNE 2 7 1 4 - - 0.0
27/04:30pm 17.1 14.5 3.1 39 6.4 ESE 6 7 3 4 - - 0.0
27/04:00pm 17.2 15.7 2.9 38 6.6 CALM 0 0 0 0 - - 0.0
27/03:30pm 17.6 15.0 3.3 38 6.6 SSE 6 9 3 5 - - 0.0
27/03:00pm 16.7 13.9 3.4 41 6.1 NE 7 11 4 6 - - 0.0
27/02:30pm 18.1 14.7 4.0 39 6.7 NNE 11 17 6 9 - - 0.0
27/02:00pm 17.5 14.4 3.7 40 6.4 N 9 15 5 8 - - 0.0
27/01:30pm 17.5 13.4 4.6 42 6.1 N 15 22 8 12 - - 0.0
27/01:00pm 16.0 13.0 4.1 45 5.5 NE 9 15 5 8 - - 0.0
27/12:30pm 14.7 11.6 3.6 47 5.1 NE 9 17 5 9 - - 0.0
27/12:00pm 14.6 12.1 4.8 52 4.6 NNW 7 13 4 7 - - 0.0
27/11:30am 13.4 10.4 4.0 53 4.3 ENE 9 15 5 8 - - 0.0
27/11:00am 12.1 9.3 5.2 62 3.2 NNE 9 13 5 7 - - 0.0
27/10:30am 11.2 8.9 4.6 64 3.0 NNE 6 11 3 6 - - 0.0
27/10:00am 9.6 6.7 4.7 71 2.2 NE 9 13 5 7 - - 0.0
27/09:30am 8.2 5.7 4.6 78 1.6 N 7 9 4 5 - - 0.0
27/09:00am 6.0 4.0 4.4 89 0.7 N 4 9 2 5 - - 0.0
27/08:30am 5.4 3.1 4.7 95 0.3 N 6 9 3 5 - - 0.0
27/08:00am 4.8 2.3 4.6 99 0.1 NNE 7 9 4 5 - - 0.0
27/07:30am 4.6 1.6 3.9 95 0.3 N 9 11 5 6 - - 0.0
27/07:00am 3.3 0.1 2.8 97 0.2 NNW 9 11 5 6 - - 0.0
27/06:30am 2.5 -0.5 2.0 96 0.2 NW 7 9 4 5 - - 0.0
27/06:00am 2.0 -1.1 1.2 94 0.3 N 7 9 4 5 - - 0.0
27/05:30am 2.6 -0.4 2.1 96 0.2 N 7 9 4 5 - - 0.0
27/05:00am 2.6 -0.2 2.1 96 0.2 NW 6 7 3 4 - - 0.0
27/04:30am 1.8 -1.3 1.3 96 0.2 N 7 9 4 5 - - 0.0
27/04:00am 1.9 -1.0 1.4 96 0.2 N 6 9 3 5 - - 0.0
27/03:30am 1.9 -1.2 1.1 94 0.3 W 7 11 4 6 - - 0.0
27/03:00am 2.4 0.0 1.9 96 0.2 N 4 7 2 4 - - 0.0
27/02:30am 3.1 0.7 2.4 95 0.3 NNW 4 7 2 4 - - 0.0
27/02:00am 3.4 1.1 2.7 95 0.3 NW 4 7 2 4 - - 0.0
27/01:30am 3.4 0.5 2.7 95 0.3 W 7 9 4 5 - - 0.0
27/01:00am 3.9 1.3 3.2 95 0.3 NNW 6 7 3 4 - - 0.0
27/12:30am 4.6 1.9 3.6 93 0.4 N 7 11 4 6 - - 0.0
27/12:00am 5.0 2.6 4.1 94 0.4 WNW 6 9 3 5 - - 0.0
 
Date/Time
EST
Temp
°C
App
Temp
°C
Dew
Point
°C
Rel
Hum
%
Delta-T
°C
Wind Press
QNH
hPa
Press
MSL
hPa
Rain since
9am
mm
Dir  Spd
km/h
Gust
km/h
Spd
kts
Gust
kts
26/11:30pm 5.7 3.4 4.8 94 0.4 NNE 6 7 3 4 - - 0.0
26/11:00pm 5.9 3.4 4.8 93 0.5 WSW 7 9 4 5 - - 0.0
26/10:30pm 6.2 5.0 4.8 91 0.6 CALM 0 0 0 0 - - 0.0
26/10:00pm 7.3 6.3 5.5 88 0.8 CALM 0 0 0 0 - - 0.0
26/09:30pm 8.4 6.7 6.0 85 1.1 E 4 7 2 4 - - 0.0
26/09:00pm 9.1 7.2 6.5 84 1.2 NE 6 9 3 5 - - 0.0
26/08:30pm 9.1 7.9 6.3 83 1.3 N 2 6 1 3 - - 0.0
26/08:00pm 9.4 7.3 6.6 83 1.3 N 7 11 4 6 - - 0.0
26/07:30pm 10.3 7.7 6.3 76 1.9 N 9 13 5 7 - - 0.0
26/07:00pm 10.9 7.1 6.0 72 2.3 NW 15 26 8 14 - - 0.0
26/06:30pm 11.6 5.3 5.6 66 2.8 N 28 39 15 21 - - 0.0
26/06:13pm 13.0 6.5 4.8 57 3.8 N 28 32 15 17 - - 0.0
26/06:00pm 13.3 10.4 4.4 55 4.1 WSW 9 11 5 6 - - 0.0
26/05:30pm 14.1 10.9 3.3 48 4.9 SW 9 13 5 7 - - 0.0
26/05:00pm 15.1 12.3 2.1 41 5.8 WNW 6 7 3 4 - - 0.0
26/04:30pm 16.2 13.2 2.3 39 6.2 WNW 7 11 4 6 - - 0.0
26/04:00pm 15.6 12.1 1.0 37 6.3 N 9 13 5 7 - - 0.0
26/03:30pm 15.6 12.5 0.0 34 6.6 ENE 6 9 3 5 - - 0.0
26/03:00pm 15.6 12.2 2.0 40 6.0 E 9 13 5 7 - - 0.0
26/02:30pm 15.0 11.6 2.0 41 5.7 S 9 11 5 6 - - 0.0
26/02:00pm 14.1 10.6 1.5 42 5.5 SSE 9 13 5 7 - - 0.0
26/01:30pm 14.6 10.9 2.6 44 5.3 NNE 11 17 6 9 - - 0.0
26/01:00pm 15.2 11.4 2.0 41 5.8 N 11 17 6 9 - - 0.0
26/12:30pm 14.6 10.9 2.6 44 5.3 N 11 17 6 9 - - 0.0
26/12:00pm 13.9 9.8 2.5 46 5.0 NNE 13 19 7 10 - - 0.0
26/11:30am 13.5 9.8 2.2 46 4.9 NNW 11 17 6 9 - - 0.0
26/11:00am 13.1 10.0 3.4 51 4.3 NNW 9 15 5 8 - - 0.0
26/10:30am 11.5 8.5 4.2 61 3.3 NE 9 11 5 6 - - 0.0
26/10:00am 10.0 7.8 3.1 62 3.0 N 4 7 2 4 - - 0.0
26/09:30am 9.5 7.4 4.1 69 2.4 NNE 4 7 2 4 - - 0.0
26/09:00am 8.6 5.9 3.8 72 2.1 ENE 7 11 4 6 - - 0.4
26/08:30am 7.0 4.5 3.5 78 1.5 NE 6 9 3 5 - - 0.4
26/08:00am 5.9 3.4 3.5 84 1.0 E 6 9 3 5 - - 0.4
26/07:30am 4.9 2.2 2.7 86 0.9 SSE 6 7 3 4 - - 0.4
26/06:30am 1.6 -0.1 1.6 100 0.0 CALM 0 0 0 0 - - 0.4
26/06:00am 1.1 -1.6 0.3 94 0.3 NW 4 9 2 5 - - 0.4
26/05:30am 1.5 -1.5 0.7 94 0.3 NW 6 7 3 4 - - 0.4
26/05:00am 1.3 -2.3 0.8 96 0.2 WSW 9 11 5 6 - - 0.4
26/04:30am 1.7 -0.1 0.9 94 0.3 CALM 0 0 0 0 - - 0.4
26/04:00am 1.7 -0.1 0.9 94 0.3 CALM 0 0 0 0 - - 0.4
26/03:30am 1.8 -1.2 1.0 94 0.3 SW 6 9 3 5 - - 0.4
26/03:00am 2.5 0.8 1.7 94 0.3 CALM 0 0 0 0 - - 0.4
26/02:30am 2.8 1.1 1.8 93 0.4 CALM 0 7 0 4 - - 0.4
26/02:00am 3.2 1.5 1.9 91 0.5 CALM 0 6 0 3 - - 0.4
26/01:30am 3.7 1.4 2.5 92 0.5 ESE 4 7 2 4 - - 0.4
26/01:00am 3.9 1.2 2.7 92 0.5 SSE 6 11 3 6 - - 0.4
26/12:30am 3.9 2.3 2.7 92 0.5 CALM 0 7 0 4 - - 0.4
26/12:00am 4.4 1.5 2.4 87 0.8 S 7 11 4 6 - - 0.4
 
Date/Time
EST
Temp
°C
App
Temp
°C
Dew
Point
°C
Rel
Hum
%
Delta-T
°C
Wind Press
QNH
hPa
Press
MSL
hPa
Rain since
9am
mm
Dir  Spd
km/h
Gust
km/h
Spd
kts
Gust
kts
25/11:30pm 4.7 2.4 2.8 87 0.8 N 4 7 2 4 - - 0.4
25/11:00pm 5.4 1.8 2.7 83 1.1 NNW 11 15 6 8 - - 0.4
25/10:30pm 6.2 1.8 2.9 79 1.4 NNW 15 19 8 10 - - 0.4
25/10:00pm 6.6 2.6 2.8 77 1.6 N 13 19 7 10 - - 0.4
25/09:30pm 6.9 3.8 3.4 78 1.5 NNW 9 11 5 6 - - 0.4
25/09:00pm 7.7 4.5 3.3 74 1.9 NW 9 15 5 8 - - 0.4
25/08:30pm 8.8 5.1 2.5 64 2.7 W 11 19 6 10 - - 0.4
25/08:00pm 7.3 4.0 2.3 70 2.1 W 9 17 5 9 - - 0.4
25/07:30pm 8.2 4.3 1.1 61 2.9 W 11 17 6 9 - - 0.4
25/07:00pm 9.3 5.0 0.8 55 3.5 WSW 13 19 7 10 - - 0.4
25/06:30pm 10.1 5.6 0.0 49 4.1 W 13 17 7 9 - - 0.4
25/06:00pm 10.7 6.4 0.9 50 4.1 W 13 19 7 10 - - 0.4
25/05:30pm 11.3 6.5 0.2 46 4.5 W 15 26 8 14 - - 0.4
25/05:00pm 12.4 8.8 0.5 44 5.0 W 9 17 5 9 - - 0.4
25/04:30pm 13.7 10.1 0.9 41 5.4 W 9 19 5 10 - - 0.4
25/04:00pm 13.8 9.9 3.2 48 4.7 WSW 13 24 7 13 - - 0.4
25/03:30pm 12.9 7.6 3.1 51 4.3 SSW 20 30 11 16 - - 0.4
25/03:00pm 14.3 10.2 2.1 43 5.4 W 13 30 7 16 - - 0.4
25/02:30pm 14.1 8.5 3.3 48 4.9 W 22 44 12 24 - - 0.4
25/02:00pm 15.1 9.5 1.2 39 6.0 W 20 33 11 18 - - 0.4
25/01:30pm 13.9 9.3 1.5 43 5.4 NW 15 30 8 16 - - 0.4

Other Formats:

Comma delimited format used in spreadsheet applications
http://www.bom.gov.au/fwo/IDT60801/IDT60801.94964.axf

JavaScript Object Notation format (JSON) in row-major order
http://www.bom.gov.au/fwo/IDT60801/IDT60801.94964.json